createdAt,value
2018-11-14T00:02:34.448Z,93.50
2018-11-14T00:05:40.106Z,93.60
2018-11-14T00:08:45.581Z,93.70
2018-11-14T00:11:51.010Z,93.80
2018-11-14T00:14:57.441Z,93.80
2018-11-14T00:18:02.904Z,93.90
2018-11-14T00:21:08.400Z,93.80
2018-11-14T00:24:14.153Z,93.80
2018-11-14T00:27:19.570Z,93.80
2018-11-14T00:30:26.006Z,93.80
2018-11-14T00:33:31.451Z,93.80
2018-11-14T00:36:36.838Z,93.90
2018-11-14T00:39:42.316Z,93.90
2018-11-14T00:42:48.466Z,93.90
2018-11-14T00:45:53.935Z,94.00
2018-11-14T00:48:59.409Z,94.00
2018-11-14T00:52:05.502Z,94.00
2018-11-14T00:55:13.987Z,94.00
2018-11-14T00:58:19.353Z,94.00
2018-11-14T01:01:24.944Z,94.10
2018-11-14T01:04:30.838Z,94.20
2018-11-14T01:07:36.334Z,94.20
2018-11-14T01:10:41.745Z,94.20
2018-11-14T01:13:47.289Z,94.30
2018-11-14T01:16:52.715Z,94.30
2018-11-14T01:19:58.163Z,94.20
2018-11-14T01:23:03.712Z,94.30
2018-11-14T01:26:09.772Z,94.50
2018-11-14T01:29:15.138Z,94.50
2018-11-14T01:32:20.591Z,94.70
2018-11-14T01:35:26.172Z,94.60
2018-11-14T01:38:31.607Z,94.60
2018-11-14T01:41:37.158Z,94.60
2018-11-14T01:44:42.622Z,94.60
2018-11-14T01:47:48.049Z,94.60
2018-11-14T01:50:53.475Z,94.50
2018-11-14T01:53:58.966Z,94.60
2018-11-14T01:57:04.410Z,94.50
2018-11-14T02:00:13.044Z,94.50
2018-11-14T02:03:18.462Z,94.50
2018-11-14T02:06:24.174Z,94.40
2018-11-14T02:09:29.622Z,94.40
2018-11-14T02:12:35.411Z,94.50
2018-11-14T02:15:40.922Z,94.50
2018-11-14T02:18:46.305Z,94.60
2018-11-14T02:21:51.677Z,94.50
2018-11-14T02:24:57.218Z,94.60
2018-11-14T02:28:02.649Z,94.60
2018-11-14T02:31:08.398Z,94.70
2018-11-14T02:34:13.878Z,94.80
2018-11-14T02:37:19.482Z,94.80
2018-11-14T02:40:24.945Z,94.90
2018-11-14T02:43:30.458Z,94.90
2018-11-14T02:46:35.813Z,95.00
2018-11-14T02:49:41.228Z,95.00
2018-11-14T02:52:46.721Z,95.00
2018-11-14T02:56:06.210Z,95.10
2018-11-14T02:59:11.566Z,95.20
2018-11-14T03:02:17.095Z,95.30
2018-11-14T03:05:22.625Z,95.40
2018-11-14T03:08:28.110Z,95.50
2018-11-14T03:11:33.495Z,95.40
2018-11-14T03:14:38.924Z,95.40
2018-11-14T03:17:44.373Z,95.30
2018-11-14T03:20:49.819Z,95.50
2018-11-14T03:23:55.396Z,95.50
2018-11-14T03:27:00.826Z,95.50
2018-11-14T03:30:08.929Z,95.50
2018-11-14T03:33:14.631Z,95.50
2018-11-14T03:36:20.997Z,95.50
2018-11-14T03:39:26.673Z,95.60
2018-11-14T03:42:32.062Z,95.60
2018-11-14T03:45:37.526Z,95.60
2018-11-14T03:48:43.102Z,95.80
2018-11-14T03:51:48.554Z,95.70
2018-11-14T03:54:54.011Z,95.70
2018-11-14T03:57:59.438Z,95.70
2018-11-14T04:01:06.091Z,95.70
2018-11-14T04:04:11.625Z,95.70
2018-11-14T04:07:17.070Z,95.80
2018-11-14T04:10:22.545Z,95.70
2018-11-14T04:13:28.117Z,95.70
2018-11-14T04:16:33.613Z,95.70
2018-11-14T04:19:38.998Z,95.80
2018-11-14T04:22:44.670Z,95.70
2018-11-14T04:25:50.115Z,95.80
2018-11-14T04:28:55.619Z,95.70
2018-11-14T04:32:01.201Z,95.70
2018-11-14T04:35:09.418Z,95.70
2018-11-14T04:38:14.835Z,95.70
2018-11-14T04:41:20.260Z,95.70
2018-11-14T04:44:25.734Z,95.70
2018-11-14T04:47:31.304Z,95.60
2018-11-14T04:50:36.690Z,95.70
2018-11-14T04:53:42.118Z,95.70
2018-11-14T04:56:47.542Z,95.70
2018-11-14T04:59:53.350Z,95.60
2018-11-14T05:02:59.327Z,95.70
2018-11-14T05:06:05.405Z,95.70
2018-11-14T05:09:12.779Z,95.70
2018-11-14T05:12:18.214Z,95.60
2018-11-14T05:15:24.834Z,95.70
2018-11-14T05:18:31.977Z,95.70
2018-11-14T05:21:37.431Z,95.90
2018-11-14T05:24:42.914Z,96.00
2018-11-14T05:27:48.808Z,95.90
2018-11-14T05:30:54.186Z,95.90
2018-11-14T05:33:59.689Z,95.90
2018-11-14T05:37:05.133Z,96.00
2018-11-14T05:40:13.935Z,96.00
2018-11-14T05:43:19.601Z,95.90
2018-11-14T05:46:24.984Z,95.90
2018-11-14T05:49:30.419Z,95.80
2018-11-14T05:52:35.842Z,95.90
2018-11-14T05:55:41.290Z,95.90
2018-11-14T05:58:46.650Z,95.90
2018-11-14T06:01:52.130Z,96.00
2018-11-14T06:04:57.592Z,96.10
2018-11-14T06:08:03.011Z,96.00
2018-11-14T06:11:08.426Z,96.00
2018-11-14T06:14:13.926Z,96.00
2018-11-14T06:17:19.305Z,96.00
2018-11-14T06:20:24.763Z,96.00
2018-11-14T06:23:30.739Z,96.00
2018-11-14T06:26:36.277Z,95.80
2018-11-14T06:29:41.741Z,95.90
2018-11-14T06:32:47.482Z,95.80
2018-11-14T06:35:52.858Z,95.60
2018-11-14T06:38:58.329Z,95.70
2018-11-14T06:42:03.800Z,95.80
2018-11-14T06:45:13.162Z,95.70
2018-11-14T06:48:18.530Z,95.70
2018-11-14T06:51:23.954Z,95.60
2018-11-14T06:54:29.385Z,95.70
2018-11-14T06:57:34.849Z,95.70
2018-11-14T07:00:40.217Z,95.60
2018-11-14T07:03:45.702Z,95.40
2018-11-14T07:06:51.081Z,95.50
2018-11-14T07:09:56.490Z,95.50
2018-11-14T07:13:05.788Z,95.50
2018-11-14T07:16:11.206Z,95.50
2018-11-14T07:19:16.593Z,95.50
2018-11-14T07:22:21.982Z,95.50
2018-11-14T07:25:27.849Z,95.50
2018-11-14T07:28:33.320Z,95.50
2018-11-14T07:31:38.759Z,95.40
2018-11-14T07:34:44.214Z,95.00
2018-11-14T07:38:53.281Z,95.00
2018-11-14T07:41:58.721Z,94.90
2018-11-14T07:45:04.204Z,94.90
2018-11-14T07:48:11.903Z,94.80
2018-11-14T07:51:17.509Z,94.90
2018-11-14T07:54:23.100Z,94.90
2018-11-14T07:57:28.694Z,94.80
2018-11-14T08:00:34.159Z,94.90
2018-11-14T08:03:39.656Z,94.80
2018-11-14T08:06:45.104Z,94.80
2018-11-14T08:09:51.081Z,94.70
2018-11-14T08:12:56.771Z,94.70
2018-11-14T08:16:02.899Z,94.80
2018-11-14T08:19:08.461Z,94.70
2018-11-14T08:22:14.043Z,94.80
2018-11-14T08:25:19.783Z,94.90
2018-11-14T08:28:25.746Z,94.80
2018-11-14T08:31:31.211Z,94.80
2018-11-14T08:34:36.675Z,94.70
2018-11-14T08:37:42.365Z,94.70
2018-11-14T08:40:48.255Z,94.70
2018-11-14T08:43:53.869Z,94.90
2018-11-14T08:46:59.371Z,94.70
2018-11-14T08:50:06.431Z,94.70
2018-11-14T08:53:13.806Z,94.60
2018-11-14T08:56:19.289Z,94.50
2018-11-14T08:59:24.811Z,94.40
2018-11-14T09:02:30.249Z,94.20
2018-11-14T09:05:35.719Z,94.20
2018-11-14T09:08:41.362Z,94.20
2018-11-14T09:11:47.112Z,94.30
2018-11-14T09:14:52.773Z,94.30
2018-11-14T09:17:58.465Z,94.30
2018-11-14T09:21:04.047Z,94.20
2018-11-14T09:24:09.523Z,94.00
2018-11-14T09:27:15.135Z,94.10
2018-11-14T09:30:22.778Z,94.10
2018-11-14T09:33:28.268Z,94.20
2018-11-14T09:36:33.747Z,94.10
2018-11-14T09:39:39.222Z,94.10
2018-11-14T09:42:44.730Z,94.10
2018-11-14T09:45:50.123Z,93.80
2018-11-14T09:48:55.552Z,93.80
2018-11-14T09:52:00.962Z,93.70
2018-11-14T09:55:08.543Z,93.50
2018-11-14T09:58:13.999Z,93.70
2018-11-14T10:01:19.398Z,93.90
2018-11-14T10:04:24.859Z,93.70
2018-11-14T10:07:30.333Z,93.30
2018-11-14T10:10:35.746Z,93.10
2018-11-14T10:13:41.202Z,93.20
2018-11-14T10:16:46.649Z,93.00
2018-11-14T10:19:52.047Z,93.10
2018-11-14T10:22:57.518Z,93.10
2018-11-14T10:26:02.970Z,93.10
2018-11-14T10:29:08.543Z,93.10
2018-11-14T10:32:14.045Z,93.00
2018-11-14T10:35:19.604Z,92.70
2018-11-14T10:38:25.071Z,92.80
2018-11-14T10:41:30.466Z,92.70
2018-11-14T10:44:35.935Z,92.50
2018-11-14T10:47:41.443Z,92.50
2018-11-14T10:50:46.948Z,92.20
2018-11-14T10:53:52.589Z,92.20
2018-11-14T10:56:58.411Z,92.10
2018-11-14T11:00:04.164Z,92.00
2018-11-14T11:03:14.719Z,92.10
2018-11-14T11:06:34.031Z,92.40
2018-11-14T11:09:44.499Z,92.60
2018-11-14T11:14:55.839Z,92.80
2018-11-14T11:18:03.037Z,92.70
2018-11-14T11:21:08.408Z,92.60
2018-11-14T11:24:14.661Z,93.10
2018-11-14T11:27:20.058Z,93.10
2018-11-14T11:30:25.442Z,93.10
2018-11-14T11:33:30.843Z,92.90
2018-11-14T11:36:36.278Z,93.00
2018-11-14T11:39:41.650Z,93.20
2018-11-14T11:42:47.051Z,93.00
2018-11-14T11:45:52.430Z,93.20
2018-11-14T11:48:57.838Z,93.00
2018-11-14T11:52:03.546Z,93.10
2018-11-14T11:55:08.995Z,93.20
2018-11-14T11:58:14.363Z,93.30
2018-11-14T12:01:19.746Z,93.30
2018-11-14T12:04:25.154Z,93.20
2018-11-14T12:07:30.498Z,93.40
2018-11-14T12:10:35.924Z,93.10
2018-11-14T12:13:41.585Z,92.90
2018-11-14T12:16:47.142Z,92.80
2018-11-14T12:19:52.527Z,92.80
2018-11-14T12:22:58.140Z,92.70
2018-11-14T12:26:03.525Z,92.80
2018-11-14T12:29:08.882Z,92.70
2018-11-14T12:32:14.278Z,93.10
2018-11-14T12:35:19.739Z,92.90
2018-11-14T12:38:25.309Z,93.00
2018-11-14T12:41:30.713Z,92.80
2018-11-14T12:44:36.077Z,92.90
2018-11-14T12:47:41.591Z,93.10
2018-11-14T12:50:46.973Z,93.00
2018-11-14T12:53:52.341Z,92.90
2018-11-14T12:56:57.726Z,92.80
2018-11-14T13:00:03.269Z,92.80
2018-11-14T13:03:08.829Z,92.70
2018-11-14T13:06:14.214Z,92.70
2018-11-14T13:09:19.573Z,92.60
2018-11-14T13:12:24.965Z,92.50
2018-11-14T13:15:30.333Z,92.60
2018-11-14T13:18:35.722Z,92.50
2018-11-14T13:21:44.604Z,92.50
2018-11-14T13:24:49.962Z,92.40
2018-11-14T13:27:55.742Z,92.60
2018-11-14T13:31:01.302Z,92.60
2018-11-14T13:34:07.098Z,92.60
2018-11-14T13:37:12.520Z,92.40
2018-11-14T13:40:17.930Z,92.30
2018-11-14T13:43:24.229Z,92.50
2018-11-14T13:46:29.616Z,92.60
2018-11-14T13:49:35.186Z,92.70
2018-11-14T13:52:40.775Z,92.70
2018-11-14T13:55:46.141Z,92.60
2018-11-14T13:58:51.506Z,92.80
2018-11-14T14:01:56.926Z,92.90
2018-11-14T14:05:02.435Z,92.80
2018-11-14T14:08:07.936Z,93.00
2018-11-14T14:11:13.470Z,93.00
2018-11-14T14:14:19.488Z,93.20
2018-11-14T14:17:24.942Z,93.00
2018-11-14T14:20:32.317Z,93.20
2018-11-14T14:23:42.626Z,93.20
2018-11-14T14:26:50.192Z,93.00
2018-11-14T14:29:55.597Z,92.80
2018-11-14T14:33:01.130Z,92.80
2018-11-14T14:36:07.442Z,92.80
2018-11-14T14:39:13.566Z,92.90
2018-11-14T14:42:18.963Z,92.80
2018-11-14T14:45:25.950Z,92.80
2018-11-14T14:48:31.434Z,92.80
2018-11-14T14:51:37.002Z,92.90
2018-11-14T14:54:42.427Z,93.10
2018-11-14T14:57:48.145Z,93.10
2018-11-14T15:00:53.995Z,93.10
2018-11-14T15:03:59.499Z,93.20
2018-11-14T15:07:05.934Z,93.30
2018-11-14T15:10:15.210Z,93.10
2018-11-14T15:13:20.585Z,93.30
2018-11-14T15:16:25.982Z,93.30
2018-11-14T15:19:31.346Z,93.20
2018-11-14T15:22:37.139Z,93.30
2018-11-14T15:25:42.678Z,93.30
2018-11-14T15:28:48.064Z,93.40
2018-11-14T15:31:53.651Z,93.50
2018-11-14T15:34:59.428Z,93.50
2018-11-14T15:38:05.448Z,93.40
2018-11-14T15:41:10.846Z,93.40
2018-11-14T15:44:16.604Z,93.30
2018-11-14T15:47:21.959Z,93.30
2018-11-14T15:50:28.949Z,93.20
2018-11-14T15:53:34.666Z,93.20
2018-11-14T15:56:40.044Z,93.10
2018-11-14T15:59:45.410Z,93.00
2018-11-14T16:02:50.842Z,93.00
2018-11-14T16:05:56.454Z,92.90
2018-11-14T16:09:01.841Z,93.10
2018-11-14T16:12:07.606Z,93.10
2018-11-14T16:15:14.151Z,93.30
2018-11-14T16:18:19.514Z,93.40
2018-11-14T16:21:24.918Z,93.40
2018-11-14T16:24:30.338Z,93.40
2018-11-14T16:27:35.918Z,93.30
2018-11-14T16:30:41.284Z,93.20
2018-11-14T16:33:46.678Z,93.20
2018-11-14T16:36:52.054Z,93.10
2018-11-14T16:39:57.445Z,93.10
2018-11-14T16:43:04.324Z,93.30
2018-11-14T16:46:09.738Z,93.30
2018-11-14T16:49:15.314Z,93.40
2018-11-14T16:52:20.709Z,93.50
2018-11-14T16:55:26.204Z,93.50
2018-11-14T16:58:31.797Z,93.40
2018-11-14T17:01:37.222Z,93.30
2018-11-14T17:04:42.657Z,93.40
2018-11-14T17:07:48.162Z,93.50
2018-11-14T17:10:53.598Z,93.50
2018-11-14T17:13:58.994Z,93.60
2018-11-14T17:17:04.438Z,93.50
2018-11-14T17:20:10.816Z,93.40
2018-11-14T17:23:16.258Z,93.30
2018-11-14T17:26:21.736Z,93.20
2018-11-14T17:29:27.253Z,93.10
2018-11-14T17:32:32.650Z,93.20
2018-11-14T17:35:38.046Z,93.20
2018-11-14T17:38:43.447Z,93.30
2018-11-14T17:41:48.946Z,93.20
2018-11-14T17:44:54.441Z,93.20
2018-11-14T17:48:00.147Z,93.10
2018-11-14T17:51:05.771Z,93.20
2018-11-14T17:54:11.191Z,93.20
2018-11-14T17:57:16.602Z,93.10
2018-11-14T18:00:23.417Z,93.10
2018-11-14T18:03:28.863Z,93.10
2018-11-14T18:06:34.243Z,93.10
2018-11-14T18:09:39.831Z,93.10
2018-11-14T18:12:46.477Z,93.00
2018-11-14T18:15:51.842Z,93.00
2018-11-14T18:18:57.201Z,93.00
2018-11-14T18:22:02.627Z,92.90
2018-11-14T18:25:08.399Z,92.80
2018-11-14T18:28:13.774Z,92.90
2018-11-14T18:31:19.245Z,93.00
2018-11-14T18:34:24.614Z,93.10
2018-11-14T18:37:30.051Z,93.40
2018-11-14T18:40:35.873Z,93.00
2018-11-14T18:43:41.272Z,93.00
2018-11-14T18:46:46.670Z,93.00
2018-11-14T18:49:52.102Z,92.90
2018-11-14T18:52:57.542Z,92.80
2018-11-14T18:56:02.895Z,92.80
2018-11-14T18:59:08.390Z,92.80
2018-11-14T19:02:13.807Z,92.80
2018-11-14T19:05:19.734Z,93.00
2018-11-14T19:08:25.144Z,93.00
2018-11-14T19:11:30.545Z,93.10
2018-11-14T19:14:35.945Z,93.00
2018-11-14T19:17:41.841Z,93.10
2018-11-14T19:20:47.226Z,93.20
2018-11-14T19:23:52.658Z,93.40
2018-11-14T19:26:58.069Z,93.60
2018-11-14T19:30:04.006Z,93.70
2018-11-14T19:33:09.520Z,93.70
2018-11-14T19:36:15.220Z,93.70
2018-11-14T19:39:20.845Z,93.80
2018-11-14T19:42:28.199Z,93.90
2018-11-14T19:45:38.391Z,93.90
2018-11-14T19:48:47.909Z,93.90
2018-11-14T19:51:56.574Z,93.90
2018-11-14T19:55:02.239Z,93.90
2018-11-14T19:58:09.421Z,93.90
2018-11-14T20:01:27.167Z,93.90
2018-11-14T20:04:32.889Z,94.10
2018-11-14T20:07:39.062Z,94.30
2018-11-14T20:10:44.564Z,94.30
2018-11-14T20:13:53.335Z,94.30
2018-11-14T20:17:00.937Z,94.30
2018-11-14T20:20:09.316Z,94.30
2018-11-14T20:23:15.003Z,94.40
2018-11-14T20:26:20.813Z,94.30
2018-11-14T20:29:26.693Z,94.20
2018-11-14T20:32:32.090Z,94.20
2018-11-14T20:35:37.906Z,94.10
2018-11-14T20:38:43.463Z,94.10
2018-11-14T20:41:49.085Z,94.10
2018-11-14T20:44:54.815Z,94.00
2018-11-14T20:48:00.498Z,94.20
2018-11-14T20:51:07.250Z,94.20
2018-11-14T20:54:12.842Z,94.30
2018-11-14T20:57:20.346Z,94.30
2018-11-14T21:00:29.909Z,94.40
2018-11-14T21:03:35.823Z,94.70
2018-11-14T21:06:41.351Z,94.90
2018-11-14T21:09:46.982Z,94.80
2018-11-14T21:12:53.444Z,94.70
2018-11-14T21:15:58.938Z,94.70
2018-11-14T21:19:04.629Z,94.70
2018-11-14T21:22:13.889Z,94.80
2018-11-14T21:25:20.422Z,94.70
2018-11-14T21:28:26.181Z,94.60
2018-11-14T21:31:33.463Z,94.60
2018-11-14T21:34:52.258Z,94.70
2018-11-14T21:38:00.139Z,94.80
2018-11-14T21:41:05.651Z,94.90
2018-11-14T21:44:11.423Z,95.00
2018-11-14T21:47:17.062Z,94.90
2018-11-14T21:50:23.721Z,94.70
2018-11-14T21:53:29.394Z,94.70
2018-11-14T21:56:34.953Z,94.80
2018-11-14T21:59:40.470Z,94.90
2018-11-14T22:02:48.706Z,95.00
2018-11-14T22:05:54.404Z,95.00
2018-11-14T22:08:59.927Z,94.90
2018-11-14T22:12:05.535Z,95.00
2018-11-14T22:15:11.959Z,95.00
2018-11-14T22:18:17.573Z,94.90
2018-11-14T22:21:23.047Z,94.80
2018-11-14T22:24:28.850Z,94.90
2018-11-14T22:27:34.997Z,94.90
2018-11-14T22:30:40.703Z,95.00
2018-11-14T22:33:46.268Z,95.00
2018-11-14T22:36:52.300Z,94.90
2018-11-14T22:39:58.019Z,95.00
2018-11-14T22:43:06.791Z,95.00
2018-11-14T22:46:12.463Z,95.00
2018-11-14T22:49:18.121Z,94.90
2018-11-14T22:52:23.768Z,94.80
2018-11-14T22:55:29.618Z,94.60
2018-11-14T22:58:36.191Z,94.70
2018-11-14T23:01:42.092Z,94.60
2018-11-14T23:04:47.886Z,94.60
2018-11-14T23:07:54.409Z,94.50
2018-11-14T23:11:00.108Z,94.30
2018-11-14T23:14:06.326Z,94.30
2018-11-14T23:17:11.764Z,94.50
2018-11-14T23:20:17.793Z,94.40
2018-11-14T23:23:23.538Z,94.10
2018-11-14T23:26:29.846Z,94.10
2018-11-14T23:29:35.900Z,94.10
2018-11-14T23:32:42.957Z,93.90
2018-11-14T23:35:48.628Z,94.00
2018-11-14T23:38:54.466Z,94.10
2018-11-14T23:42:00.084Z,94.10
2018-11-14T23:45:07.583Z,94.20
2018-11-14T23:48:13.055Z,94.20
2018-11-14T23:51:18.567Z,94.00
2018-11-14T23:54:24.378Z,94.00
2018-11-14T23:57:29.900Z,94.20
